createdAt,value
2018-08-03T00:02:17.492Z,21.70
2018-08-03T00:04:46.703Z,21.60
2018-08-03T00:07:14.863Z,21.70
2018-08-03T00:09:43.060Z,21.60
2018-08-03T00:12:11.273Z,21.60
2018-08-03T00:14:39.687Z,21.60
2018-08-03T00:17:07.877Z,21.60
2018-08-03T00:19:36.112Z,21.60
2018-08-03T00:22:04.270Z,21.60
2018-08-03T00:24:32.611Z,21.60
2018-08-03T00:27:00.799Z,21.50
2018-08-03T00:29:28.998Z,21.50
2018-08-03T00:31:57.181Z,21.40
2018-08-03T00:34:25.396Z,21.40
2018-08-03T00:36:53.581Z,21.40
2018-08-03T00:39:21.774Z,21.40
2018-08-03T00:41:49.969Z,21.40
2018-08-03T00:44:18.346Z,21.40
2018-08-03T00:46:46.525Z,21.50
2018-08-03T00:49:14.772Z,21.50
2018-08-03T00:51:42.953Z,21.60
2018-08-03T00:54:11.131Z,21.60
2018-08-03T00:56:39.302Z,21.60
2018-08-03T00:59:07.490Z,21.50
2018-08-03T01:01:35.684Z,21.30
2018-08-03T01:04:04.056Z,21.10
2018-08-03T01:06:32.281Z,20.90
2018-08-03T01:09:00.461Z,20.90
2018-08-03T01:11:28.681Z,20.90
2018-08-03T01:13:57.048Z,20.90
2018-08-03T01:16:25.226Z,20.80
2018-08-03T01:18:53.446Z,20.80
2018-08-03T01:21:21.630Z,20.80
2018-08-03T01:23:49.872Z,20.70
2018-08-03T01:26:18.034Z,20.70
2018-08-03T01:28:46.273Z,20.70
2018-08-03T01:31:14.494Z,20.70
2018-08-03T01:33:43.807Z,20.70
2018-08-03T01:36:11.956Z,20.70
2018-08-03T01:38:40.143Z,20.80
2018-08-03T01:41:08.323Z,20.80
2018-08-03T01:43:36.565Z,20.70
2018-08-03T01:46:04.748Z,20.80
2018-08-03T01:48:32.973Z,20.70
2018-08-03T01:51:01.176Z,20.70
2018-08-03T01:56:29.445Z,20.70
2018-08-03T01:58:57.635Z,20.60
2018-08-03T02:01:25.784Z,20.60
2018-08-03T02:03:54.027Z,20.60
2018-08-03T02:06:22.205Z,20.50
2018-08-03T02:08:50.519Z,20.50
2018-08-03T02:11:18.705Z,20.50
2018-08-03T02:13:46.911Z,20.50
2018-08-03T02:16:15.080Z,20.40
2018-08-03T02:18:43.245Z,20.40
2018-08-03T02:21:11.457Z,20.40
2018-08-03T02:23:39.736Z,20.40
2018-08-03T02:26:08.980Z,20.50
2018-08-03T02:28:37.170Z,20.40
2018-08-03T02:31:05.387Z,20.40
2018-08-03T02:33:33.777Z,20.40
2018-08-03T02:36:02.003Z,20.40
2018-08-03T02:38:30.654Z,20.40
2018-08-03T02:40:58.865Z,20.40
2018-08-03T02:43:27.282Z,20.30
2018-08-03T02:45:55.449Z,20.30
2018-08-03T02:48:23.611Z,20.30
2018-08-03T02:50:51.779Z,20.30
2018-08-03T02:53:19.945Z,20.30
2018-08-03T02:55:48.162Z,20.30
2018-08-03T02:58:16.308Z,20.30
2018-08-03T03:00:44.493Z,20.20
2018-08-03T03:03:12.743Z,20.20
2018-08-03T03:05:40.946Z,20.20
2018-08-03T03:08:09.241Z,20.10
2018-08-03T03:10:37.439Z,20.10
2018-08-03T03:13:05.673Z,20.10
2018-08-03T03:15:34.063Z,20.10
2018-08-03T03:18:02.239Z,20.00
2018-08-03T03:20:30.443Z,20.00
2018-08-03T03:22:58.593Z,20.00
2018-08-03T03:25:26.992Z,19.90
2018-08-03T03:27:55.129Z,20.00
2018-08-03T03:30:23.317Z,20.00
2018-08-03T03:32:51.525Z,20.00
2018-08-03T03:35:19.728Z,19.90
2018-08-03T03:37:48.024Z,19.90
2018-08-03T03:40:16.259Z,19.90
2018-08-03T03:42:44.459Z,19.90
2018-08-03T03:45:12.678Z,19.90
2018-08-03T03:47:41.922Z,19.80
2018-08-03T03:50:10.127Z,19.80
2018-08-03T03:52:38.327Z,19.80
2018-08-03T03:55:06.671Z,19.80
2018-08-03T03:57:34.845Z,19.90
2018-08-03T04:00:03.247Z,19.80
2018-08-03T04:02:31.410Z,19.80
2018-08-03T04:04:59.630Z,19.80
2018-08-03T04:07:28.806Z,19.80
2018-08-03T04:09:57.274Z,19.70
2018-08-03T04:12:25.450Z,19.70
2018-08-03T04:14:53.701Z,19.70
2018-08-03T04:17:21.908Z,19.70
2018-08-03T04:19:50.095Z,19.70
2018-08-03T04:22:18.294Z,19.60
2018-08-03T04:24:46.583Z,19.60
2018-08-03T04:27:14.802Z,19.60
2018-08-03T04:29:43.010Z,19.60
2018-08-03T04:32:11.176Z,19.60
2018-08-03T04:34:39.472Z,19.50
2018-08-03T04:37:07.695Z,19.50
2018-08-03T04:39:35.846Z,19.40
2018-08-03T04:42:04.139Z,19.40
2018-08-03T04:45:34.879Z,19.40
2018-08-03T04:48:03.115Z,19.50
2018-08-03T04:50:31.342Z,19.60
2018-08-03T04:52:59.522Z,19.70
2018-08-03T04:55:27.737Z,19.70
2018-08-03T04:57:55.921Z,19.80
2018-08-03T05:00:24.139Z,19.90
2018-08-03T05:02:52.302Z,19.90
2018-08-03T05:05:20.492Z,19.90
2018-08-03T05:07:48.703Z,20.00
2018-08-03T05:10:16.937Z,20.00
2018-08-03T05:12:45.104Z,20.10
2018-08-03T05:15:13.275Z,20.20
2018-08-03T05:17:41.489Z,20.20
2018-08-03T05:20:09.657Z,20.30
2018-08-03T05:22:38.023Z,20.40
2018-08-03T05:25:06.697Z,20.50
2018-08-03T05:27:34.951Z,20.50
2018-08-03T05:30:03.181Z,20.70
2018-08-03T05:32:31.350Z,20.80
2018-08-03T05:34:59.762Z,21.00
2018-08-03T05:37:28.008Z,21.20
2018-08-03T05:39:56.378Z,21.40
2018-08-03T05:42:24.598Z,21.60
2018-08-03T05:44:52.728Z,21.70
2018-08-03T05:47:20.946Z,21.80
2018-08-03T05:49:49.160Z,21.90
2018-08-03T05:52:17.432Z,22.10
2018-08-03T05:54:45.828Z,22.10
2018-08-03T05:57:14.143Z,22.20
2018-08-03T05:59:42.349Z,22.30
2018-08-03T06:02:10.656Z,22.30
2018-08-03T06:04:38.901Z,22.30
2018-08-03T06:07:07.098Z,22.40
2018-08-03T06:09:35.374Z,22.40
2018-08-03T06:12:03.561Z,22.40
2018-08-03T06:14:32.029Z,22.50
2018-08-03T06:17:00.272Z,22.60
2018-08-03T06:19:28.467Z,22.70
2018-08-03T06:21:56.671Z,22.70
2018-08-03T06:24:24.883Z,22.70
2018-08-03T06:26:53.107Z,22.80
2018-08-03T06:29:21.267Z,22.80
2018-08-03T06:31:49.556Z,22.90
2018-08-03T06:34:17.884Z,22.90
2018-08-03T06:36:46.125Z,22.80
2018-08-03T06:39:14.310Z,22.90
2018-08-03T06:41:43.056Z,22.90
2018-08-03T06:44:11.425Z,23.10
2018-08-03T06:46:39.708Z,23.10
2018-08-03T06:49:07.947Z,23.10
2018-08-03T06:51:36.134Z,23.20
2018-08-03T06:54:04.566Z,23.20
2018-08-03T06:56:32.744Z,23.30
2018-08-03T06:59:01.028Z,23.40
2018-08-03T07:01:29.420Z,23.50
2018-08-03T07:03:58.029Z,23.60
2018-08-03T07:06:26.380Z,23.70
2018-08-03T07:08:54.680Z,23.80
2018-08-03T07:11:23.021Z,23.80
2018-08-03T07:13:51.404Z,23.80
2018-08-03T07:16:19.651Z,23.90
2018-08-03T07:18:47.794Z,24.00
2018-08-03T07:21:17.650Z,24.10
2018-08-03T07:23:45.933Z,24.20
2018-08-03T07:26:14.189Z,24.30
2018-08-03T07:28:42.397Z,24.30
2018-08-03T07:31:10.574Z,24.30
2018-08-03T07:33:39.839Z,24.40
2018-08-03T07:36:08.031Z,24.50
2018-08-03T07:38:36.241Z,24.50
2018-08-03T07:41:04.483Z,24.60
2018-08-03T07:43:32.759Z,24.60
2018-08-03T07:46:00.880Z,24.70
2018-08-03T07:48:29.098Z,24.80
2018-08-03T07:50:57.277Z,24.90
2018-08-03T07:53:25.462Z,24.90
2018-08-03T07:55:53.704Z,24.90
2018-08-03T07:58:21.898Z,25.00
2018-08-03T08:00:50.060Z,25.00
2018-08-03T08:03:18.297Z,25.00
2018-08-03T08:05:46.392Z,25.10
2018-08-03T08:08:14.631Z,25.10
2018-08-03T08:10:42.828Z,25.30
2018-08-03T08:13:11.046Z,25.30
2018-08-03T08:15:39.366Z,25.40
2018-08-03T08:18:07.541Z,25.40
2018-08-03T08:23:10.350Z,25.50
2018-08-03T08:25:38.693Z,25.40
2018-08-03T08:28:07.019Z,25.40
2018-08-03T08:30:35.246Z,25.40
2018-08-03T08:33:03.424Z,25.50
2018-08-03T08:35:31.705Z,25.60
2018-08-03T08:37:59.921Z,25.60
2018-08-03T08:40:28.154Z,25.50
2018-08-03T08:42:56.322Z,25.60
2018-08-03T08:45:24.742Z,25.80
2018-08-03T08:47:53.010Z,25.80
2018-08-03T08:50:21.243Z,25.90
2018-08-03T08:52:49.489Z,25.90
2018-08-03T08:55:18.717Z,25.80
2018-08-03T08:57:46.921Z,25.80
2018-08-03T09:00:15.176Z,25.80
2018-08-03T09:02:43.400Z,25.80
2018-08-03T09:05:11.766Z,26.00
2018-08-03T09:07:40.092Z,26.20
2018-08-03T09:10:08.674Z,26.30
2018-08-03T09:12:36.939Z,26.30
2018-08-03T09:15:05.218Z,26.40
2018-08-03T09:17:33.449Z,26.40
2018-08-03T09:20:01.675Z,26.30
2018-08-03T09:22:30.030Z,26.20
2018-08-03T09:24:58.329Z,26.20
2018-08-03T09:27:26.508Z,26.20
2018-08-03T09:29:54.719Z,26.20
2018-08-03T09:32:22.923Z,26.30
2018-08-03T09:34:51.189Z,26.20
2018-08-03T09:37:19.452Z,26.30
2018-08-03T09:39:47.609Z,26.30
2018-08-03T09:42:15.789Z,26.20
2018-08-03T09:44:43.980Z,26.30
2018-08-03T09:47:12.165Z,26.30
2018-08-03T09:49:40.472Z,26.30
2018-08-03T09:52:08.690Z,26.40
2018-08-03T09:54:36.916Z,26.20
2018-08-03T09:57:05.089Z,26.30
2018-08-03T09:59:33.307Z,26.30
2018-08-03T10:02:01.543Z,26.30
2018-08-03T10:04:29.932Z,26.30
2018-08-03T10:06:58.153Z,26.30
2018-08-03T10:09:26.364Z,26.10
2018-08-03T10:11:54.631Z,26.20
2018-08-03T10:14:23.884Z,26.30
2018-08-03T10:16:52.092Z,26.20
2018-08-03T10:19:20.313Z,26.10
2018-08-03T10:21:48.964Z,26.20
2018-08-03T10:24:17.145Z,26.20
2018-08-03T10:26:45.356Z,26.20
2018-08-03T10:29:13.574Z,26.20
2018-08-03T10:31:41.823Z,26.40
2018-08-03T10:34:10.003Z,26.30
2018-08-03T10:36:38.196Z,26.30
2018-08-03T10:39:07.795Z,26.30
2018-08-03T10:41:36.073Z,26.20
2018-08-03T10:44:04.374Z,26.20
2018-08-03T10:46:32.576Z,26.30
2018-08-03T10:49:00.830Z,26.20
2018-08-03T10:51:29.083Z,26.20
2018-08-03T10:53:57.416Z,26.40
2018-08-03T10:56:25.598Z,26.50
2018-08-03T10:58:53.807Z,26.50
2018-08-03T11:01:22.074Z,26.50
2018-08-03T11:03:50.423Z,26.50
2018-08-03T11:06:18.629Z,26.50
2018-08-03T11:08:46.889Z,26.50
2018-08-03T11:11:15.081Z,26.50
2018-08-03T11:13:43.593Z,26.50
2018-08-03T11:16:11.712Z,26.50
2018-08-03T11:18:39.948Z,26.70
2018-08-03T11:21:09.027Z,26.70
2018-08-03T11:23:38.383Z,26.60
2018-08-03T11:26:06.584Z,26.60
2018-08-03T11:28:34.846Z,26.60
2018-08-03T11:31:03.031Z,26.60
2018-08-03T11:33:31.301Z,26.70
2018-08-03T11:35:59.468Z,26.70
2018-08-03T11:38:27.651Z,26.80
2018-08-03T11:40:56.232Z,26.80
2018-08-03T11:43:24.611Z,26.90
2018-08-03T11:45:52.838Z,27.00
2018-08-03T11:48:21.044Z,27.00
2018-08-03T11:50:49.198Z,26.90
2018-08-03T11:53:17.467Z,26.90
2018-08-03T11:55:45.807Z,27.00
2018-08-03T11:58:13.999Z,26.90
2018-08-03T12:00:42.205Z,27.10
2018-08-03T12:03:10.385Z,27.20
2018-08-03T12:05:38.607Z,27.20
2018-08-03T12:08:06.826Z,27.10
2018-08-03T12:10:35.044Z,27.10
2018-08-03T12:13:03.219Z,27.10
2018-08-03T12:15:31.473Z,27.10
2018-08-03T12:17:59.709Z,27.20
2018-08-03T12:20:27.829Z,27.30
2018-08-03T12:22:55.962Z,27.20
2018-08-03T12:25:24.088Z,27.30
2018-08-03T12:27:52.213Z,27.20
2018-08-03T12:30:20.315Z,27.20
2018-08-03T12:32:48.461Z,27.20
2018-08-03T12:35:16.589Z,27.20
2018-08-03T12:37:44.697Z,27.20
2018-08-03T12:40:12.806Z,27.30
2018-08-03T12:42:40.942Z,27.30
2018-08-03T12:45:09.015Z,27.30
2018-08-03T12:47:37.166Z,27.50
2018-08-03T12:50:05.293Z,27.40
2018-08-03T12:52:33.424Z,27.40
2018-08-03T12:55:01.607Z,27.40
2018-08-03T12:57:29.751Z,27.30
2018-08-03T12:59:57.833Z,27.40
2018-08-03T13:02:25.967Z,27.50
2018-08-03T13:04:54.031Z,27.40
2018-08-03T13:07:22.274Z,27.50
2018-08-03T13:09:50.271Z,27.50
2018-08-03T13:12:18.378Z,27.60
2018-08-03T13:14:46.553Z,27.60
2018-08-03T13:17:14.702Z,27.60
2018-08-03T13:19:42.813Z,27.60
2018-08-03T13:22:18.628Z,27.70
2018-08-03T13:24:46.846Z,27.70
2018-08-03T13:27:15.023Z,27.70
2018-08-03T13:29:43.113Z,27.70
2018-08-03T13:32:11.234Z,27.90
2018-08-03T13:34:39.598Z,27.90
2018-08-03T13:37:07.739Z,27.80
2018-08-03T13:39:35.860Z,27.80
2018-08-03T13:42:03.980Z,27.80
2018-08-03T13:44:33.177Z,27.80
2018-08-03T13:47:01.282Z,27.80
2018-08-03T13:49:29.393Z,27.90
2018-08-03T13:51:57.526Z,27.80
2018-08-03T13:54:25.770Z,27.80
2018-08-03T13:56:53.877Z,27.70
2018-08-03T13:59:21.962Z,27.70
2018-08-03T14:02:01.434Z,27.80
2018-08-03T14:04:29.680Z,27.80
2018-08-03T14:06:57.842Z,27.80
2018-08-03T14:09:25.946Z,27.70
2018-08-03T14:11:54.078Z,27.60
2018-08-03T14:14:22.376Z,27.60
2018-08-03T14:16:50.528Z,27.60
2018-08-03T14:19:18.599Z,27.70
2018-08-03T14:21:46.710Z,27.70
2018-08-03T14:24:14.892Z,27.60
2018-08-03T14:26:43.017Z,27.60
2018-08-03T14:29:11.118Z,27.70
2018-08-03T14:31:39.268Z,27.80
2018-08-03T14:34:07.384Z,27.90
2018-08-03T14:36:35.541Z,27.80
2018-08-03T14:39:04.917Z,27.80
2018-08-03T14:41:33.035Z,27.80
2018-08-03T14:44:01.172Z,27.80
2018-08-03T14:46:29.353Z,27.80
2018-08-03T14:48:57.471Z,27.90
2018-08-03T14:51:25.600Z,28.00
2018-08-03T14:53:53.743Z,27.90
2018-08-03T14:56:21.919Z,27.90
2018-08-03T14:58:50.256Z,27.90
2018-08-03T15:01:18.380Z,28.20
2018-08-03T15:03:46.643Z,28.40
2018-08-03T15:06:14.782Z,28.30
2018-08-03T15:08:42.941Z,28.10
2018-08-03T15:11:11.074Z,28.00
2018-08-03T15:13:39.549Z,28.00
2018-08-03T15:16:07.724Z,28.10
2018-08-03T15:18:35.873Z,28.10
2018-08-03T15:21:04.133Z,28.10
2018-08-03T15:23:32.283Z,28.10
2018-08-03T15:26:00.490Z,28.10
2018-08-03T15:28:28.591Z,28.00
2018-08-03T15:30:56.789Z,27.80
2018-08-03T15:33:25.184Z,27.80
2018-08-03T15:35:53.463Z,27.80
2018-08-03T15:38:21.607Z,27.70
2018-08-03T15:40:49.791Z,27.60
2018-08-03T15:43:17.845Z,27.60
2018-08-03T15:45:45.944Z,27.60
2018-08-03T15:48:14.052Z,27.60
2018-08-03T15:50:42.196Z,27.60
2018-08-03T15:53:10.279Z,27.40
2018-08-03T15:55:38.370Z,27.30
2018-08-03T15:58:06.469Z,27.20
2018-08-03T16:00:34.612Z,27.30
2018-08-03T16:03:02.704Z,27.30
2018-08-03T16:05:30.829Z,27.30
2018-08-03T16:07:58.981Z,27.30
2018-08-03T16:10:27.081Z,27.30
2018-08-03T16:12:55.231Z,27.20
2018-08-03T16:15:23.394Z,27.10
2018-08-03T16:17:51.681Z,27.20
2018-08-03T16:20:19.813Z,27.30
2018-08-03T16:22:47.938Z,27.30
2018-08-03T16:25:16.266Z,27.20
2018-08-03T16:27:44.390Z,27.10
2018-08-03T16:30:12.517Z,27.00
2018-08-03T16:32:40.693Z,26.90
2018-08-03T16:35:10.612Z,26.90
2018-08-03T16:37:38.802Z,26.90
2018-08-03T16:40:08.630Z,26.80
2018-08-03T16:42:36.853Z,26.70
2018-08-03T16:45:05.850Z,26.70
2018-08-03T16:47:33.963Z,26.80
2018-08-03T16:50:02.093Z,26.80
2018-08-03T16:52:30.213Z,26.80
2018-08-03T16:54:58.516Z,26.70
2018-08-03T16:57:26.608Z,26.70
2018-08-03T16:59:54.713Z,26.70
2018-08-03T17:02:23.071Z,26.60
2018-08-03T17:04:51.363Z,26.50
2018-08-03T17:07:19.556Z,26.50
2018-08-03T17:09:47.655Z,26.50
2018-08-03T17:12:15.767Z,26.50
2018-08-03T17:14:44.255Z,26.50
2018-08-03T17:17:12.405Z,26.50
2018-08-03T17:19:40.512Z,26.40
2018-08-03T17:22:08.629Z,26.50
2018-08-03T17:24:36.800Z,26.50
2018-08-03T17:27:04.963Z,26.50
2018-08-03T17:29:33.101Z,26.50
2018-08-03T17:32:01.340Z,26.50
2018-08-03T17:34:29.731Z,26.50
2018-08-03T17:36:58.008Z,26.40
2018-08-03T17:39:26.204Z,26.40
2018-08-03T17:41:54.448Z,26.40
2018-08-03T17:44:22.809Z,26.30
2018-08-03T17:46:50.994Z,26.30
2018-08-03T17:49:19.212Z,26.20
2018-08-03T17:51:47.439Z,26.10
2018-08-03T17:54:15.601Z,26.10
2018-08-03T17:56:43.836Z,26.00
2018-08-03T17:59:12.082Z,26.00
2018-08-03T18:01:40.352Z,26.00
2018-08-03T18:04:08.632Z,26.00
2018-08-03T18:06:36.907Z,25.90
2018-08-03T18:09:06.592Z,25.90
2018-08-03T18:11:34.762Z,25.80
2018-08-03T18:14:02.947Z,25.80
2018-08-03T18:16:31.100Z,25.70
2018-08-03T18:21:59.350Z,25.60
2018-08-03T18:24:27.805Z,25.60
2018-08-03T18:26:56.052Z,25.50
2018-08-03T18:29:24.296Z,25.50
2018-08-03T18:31:52.564Z,25.40
2018-08-03T18:34:20.859Z,25.40
2018-08-03T18:36:49.074Z,25.40
2018-08-03T18:39:17.261Z,25.40
2018-08-03T18:41:45.469Z,25.40
2018-08-03T18:44:13.738Z,25.30
2018-08-03T18:46:41.953Z,25.30
2018-08-03T18:49:10.168Z,25.20
2018-08-03T18:51:38.366Z,25.10
2018-08-03T18:54:06.680Z,25.10
2018-08-03T18:56:34.890Z,25.00
2018-08-03T18:59:03.104Z,24.90
2018-08-03T19:01:31.284Z,24.90
2018-08-03T19:03:59.522Z,24.80
2018-08-03T19:06:27.744Z,24.80
2018-08-03T19:08:56.026Z,24.70
2018-08-03T19:11:24.242Z,24.70
2018-08-03T19:13:52.459Z,24.70
2018-08-03T19:16:20.712Z,24.70
2018-08-03T19:18:48.908Z,24.70
2018-08-03T19:21:17.237Z,24.60
2018-08-03T19:23:45.577Z,24.60
2018-08-03T19:26:13.797Z,24.50
2018-08-03T19:28:42.126Z,24.50
2018-08-03T19:31:10.383Z,24.50
2018-08-03T19:33:38.678Z,24.50
2018-08-03T19:36:06.926Z,24.40
2018-08-03T19:38:35.273Z,24.30
2018-08-03T19:41:03.704Z,24.30
2018-08-03T19:43:31.970Z,24.30
2018-08-03T19:46:00.209Z,24.30
2018-08-03T19:48:28.431Z,24.20
2018-08-03T19:50:56.611Z,24.20
2018-08-03T19:53:24.883Z,24.20
2018-08-03T19:55:53.162Z,24.10
2018-08-03T19:58:21.425Z,24.10
2018-08-03T20:00:49.686Z,24.10
2018-08-03T20:03:17.881Z,24.10
2018-08-03T20:05:46.054Z,24.00
2018-08-03T20:08:14.353Z,24.00
2018-08-03T20:10:42.748Z,24.00
2018-08-03T20:13:10.947Z,24.00
2018-08-03T20:15:39.327Z,24.00
2018-08-03T20:18:07.550Z,23.90
2018-08-03T20:20:35.734Z,23.90
2018-08-03T20:23:03.966Z,23.90
2018-08-03T20:25:32.194Z,23.90
2018-08-03T20:28:00.346Z,23.90
2018-08-03T20:30:28.565Z,23.90
2018-08-03T20:32:56.755Z,23.90
2018-08-03T20:35:24.957Z,23.90
2018-08-03T20:37:53.145Z,23.80
2018-08-03T20:40:21.315Z,23.80
2018-08-03T20:42:49.725Z,23.80
2018-08-03T20:45:19.019Z,23.70
2018-08-03T20:47:47.227Z,23.70
2018-08-03T20:50:15.398Z,23.70
2018-08-03T20:52:43.633Z,23.70
2018-08-03T20:55:11.913Z,23.60
2018-08-03T20:57:40.091Z,23.60
2018-08-03T21:00:08.296Z,23.60
2018-08-03T21:02:36.502Z,23.60
2018-08-03T21:05:06.133Z,23.60
2018-08-03T21:07:34.358Z,23.50
2018-08-03T21:10:02.570Z,23.50
2018-08-03T21:12:30.833Z,23.50
2018-08-03T21:14:59.198Z,23.50
2018-08-03T21:17:27.406Z,23.60
2018-08-03T21:19:55.695Z,23.50
2018-08-03T21:22:23.971Z,23.40
2018-08-03T21:24:52.626Z,23.40
2018-08-03T21:27:20.823Z,23.40
2018-08-03T21:29:49.035Z,23.40
2018-08-03T21:32:17.322Z,23.40
2018-08-03T21:34:45.497Z,23.30
2018-08-03T21:37:13.649Z,23.30
2018-08-03T21:39:41.885Z,23.20
2018-08-03T21:42:10.058Z,23.10
2018-08-03T21:44:38.268Z,23.10
2018-08-03T21:47:06.489Z,23.10
2018-08-03T21:49:34.786Z,23.00
2018-08-03T21:52:03.094Z,22.90
2018-08-03T21:54:31.471Z,22.90
2018-08-03T21:56:59.682Z,22.90
2018-08-03T21:59:27.889Z,22.80
2018-08-03T22:01:56.141Z,22.80
2018-08-03T22:04:24.342Z,22.70
2018-08-03T22:06:52.578Z,22.70
2018-08-03T22:09:20.791Z,22.70
2018-08-03T22:11:49.030Z,22.60
2018-08-03T22:14:17.385Z,22.60
2018-08-03T22:16:45.605Z,22.50
2018-08-03T22:19:13.809Z,22.50
2018-08-03T22:21:42.001Z,22.40
2018-08-03T22:24:10.273Z,22.40
2018-08-03T22:26:38.562Z,22.40
2018-08-03T22:29:06.805Z,22.30
2018-08-03T22:31:35.775Z,22.30
2018-08-03T22:34:05.213Z,22.20
2018-08-03T22:36:33.407Z,22.30
2018-08-03T22:39:01.772Z,22.30
2018-08-03T22:41:29.941Z,22.30
2018-08-03T22:43:58.267Z,22.40
2018-08-03T22:46:26.507Z,22.40
2018-08-03T22:48:54.678Z,22.40
2018-08-03T22:51:22.916Z,22.30
2018-08-03T22:53:51.189Z,22.30
2018-08-03T22:56:19.423Z,22.30
2018-08-03T22:58:47.677Z,22.20
2018-08-03T23:01:16.035Z,22.30
2018-08-03T23:03:44.254Z,22.20
2018-08-03T23:06:12.486Z,22.20
2018-08-03T23:08:40.667Z,22.10
2018-08-03T23:11:08.834Z,22.10
2018-08-03T23:13:37.242Z,22.20
2018-08-03T23:16:05.436Z,22.20
2018-08-03T23:18:33.692Z,22.10
2018-08-03T23:21:01.859Z,22.10
2018-08-03T23:23:30.077Z,22.10
2018-08-03T23:25:58.261Z,22.10
2018-08-03T23:28:26.427Z,22.10
2018-08-03T23:30:54.691Z,22.10
2018-08-03T23:33:22.949Z,22.10
2018-08-03T23:35:51.164Z,22.00
2018-08-03T23:38:19.462Z,22.00
2018-08-03T23:40:47.714Z,22.00
2018-08-03T23:43:15.994Z,22.00
2018-08-03T23:45:44.329Z,22.00
2018-08-03T23:48:12.503Z,22.00
2018-08-03T23:50:40.721Z,21.90
2018-08-03T23:53:08.973Z,21.90
2018-08-03T23:55:37.248Z,21.90
2018-08-03T23:58:05.498Z,22.00
